sensor_id;sensor_type;location;lat;lon;timestamp;pressure;altitude;pressure_sealevel;temperature;humidity
20696;BME280;10507;52.754;13.040;2023-01-29T00:02:03;101301.22;;;-0.17;96.13
20696;BME280;10507;52.754;13.040;2023-01-29T00:04:33;101289.84;;;-0.16;96.25
20696;BME280;10507;52.754;13.040;2023-01-29T00:07:01;101303.00;;;-0.10;96.11
20696;BME280;10507;52.754;13.040;2023-01-29T00:09:29;101244.34;;;-0.24;95.83
20696;BME280;10507;52.754;13.040;2023-01-29T00:11:57;101269.75;;;-0.12;96.24
20696;BME280;10507;52.754;13.040;2023-01-29T00:14:25;101253.97;;;-0.22;96.53
20696;BME280;10507;52.754;13.040;2023-01-29T00:16:53;101292.50;;;-0.13;96.38
20696;BME280;10507;52.754;13.040;2023-01-29T00:19:22;101282.84;;;-0.18;96.91
20696;BME280;10507;52.754;13.040;2023-01-29T00:21:51;101254.84;;;-0.21;96.60
20696;BME280;10507;52.754;13.040;2023-01-29T00:24:19;101243.47;;;-0.23;96.54
20696;BME280;10507;52.754;13.040;2023-01-29T00:26:48;101230.31;;;-0.35;96.43
20696;BME280;10507;52.754;13.040;2023-01-29T00:29:16;101207.53;;;-0.44;96.79
20696;BME280;10507;52.754;13.040;2023-01-29T00:31:45;101181.25;;;-0.55;96.29
20696;BME280;10507;52.754;13.040;2023-01-29T00:34:14;101231.09;;;-0.52;96.74
20696;BME280;10507;52.754;13.040;2023-01-29T00:36:42;101238.13;;;-0.54;97.35
20696;BME280;10507;52.754;13.040;2023-01-29T00:39:12;101230.19;;;-0.61;97.42
20696;BME280;10507;52.754;13.040;2023-01-29T00:41:41;101281.78;;;-0.59;97.24
20696;BME280;10507;52.754;13.040;2023-01-29T00:44:26;101344.75;;;-0.53;97.59
20696;BME280;10507;52.754;13.040;2023-01-29T00:47:11;101303.69;;;-0.54;98.04
20696;BME280;10507;52.754;13.040;2023-01-29T00:49:53;101323.75;;;-0.57;97.83
20696;BME280;10507;52.754;13.040;2023-01-29T00:52:22;101350.00;;;-0.53;98.12
20696;BME280;10507;52.754;13.040;2023-01-29T00:54:56;101321.16;;;-0.56;97.63
20696;BME280;10507;52.754;13.040;2023-01-29T00:57:25;101363.16;;;-0.48;98.01
20696;BME280;10507;52.754;13.040;2023-01-29T00:59:54;101371.91;;;-0.43;98.50
20696;BME280;10507;52.754;13.040;2023-01-29T01:02:22;101389.38;;;-0.45;98.70
20696;BME280;10507;52.754;13.040;2023-01-29T01:05:08;101394.66;;;-0.40;98.17
20696;BME280;10507;52.754;13.040;2023-01-29T01:07:44;101399.06;;;-0.39;98.89
20696;BME280;10507;52.754;13.040;2023-01-29T01:10:16;101385.09;;;-0.37;98.61
20696;BME280;10507;52.754;13.040;2023-01-29T01:12:53;101345.69;;;-0.45;97.82
20696;BME280;10507;52.754;13.040;2023-01-29T01:15:22;101398.25;;;-0.31;98.23
20696;BME280;10507;52.754;13.040;2023-01-29T01:17:54;101395.59;;;-0.32;97.99
20696;BME280;10507;52.754;13.040;2023-01-29T01:20:22;101381.63;;;-0.31;98.76
20696;BME280;10507;52.754;13.040;2023-01-29T01:22:52;101419.28;;;-0.23;98.48
20696;BME280;10507;52.754;13.040;2023-01-29T01:25:22;101382.53;;;-0.26;98.17
20696;BME280;10507;52.754;13.040;2023-01-29T01:27:51;101378.97;;;-0.34;98.47
20696;BME280;10507;52.754;13.040;2023-01-29T01:30:20;101401.72;;;-0.32;98.48
20696;BME280;10507;52.754;13.040;2023-01-29T01:32:48;101437.63;;;-0.26;98.44
20696;BME280;10507;52.754;13.040;2023-01-29T01:35:17;101449.03;;;-0.21;98.99
20696;BME280;10507;52.754;13.040;2023-01-29T01:37:45;101400.00;;;-0.25;98.57
20696;BME280;10507;52.754;13.040;2023-01-29T01:40:14;101405.25;;;-0.28;99.38
20696;BME280;10507;52.754;13.040;2023-01-29T01:42:46;101420.13;;;-0.29;98.72
20696;BME280;10507;52.754;13.040;2023-01-29T01:45:20;101434.19;;;-0.19;99.13
20696;BME280;10507;52.754;13.040;2023-01-29T01:47:51;101436.84;;;-0.13;98.84
20696;BME280;10507;52.754;13.040;2023-01-29T01:50:24;101423.72;;;-0.13;99.50
20696;BME280;10507;52.754;13.040;2023-01-29T01:52:56;101421.97;;;-0.14;99.21
20696;BME280;10507;52.754;13.040;2023-01-29T01:55:28;101441.25;;;-0.09;99.04
20696;BME280;10507;52.754;13.040;2023-01-29T01:58:02;101404.44;;;-0.16;99.00
20696;BME280;10507;52.754;13.040;2023-01-29T02:00:31;101392.16;;;-0.24;99.12
20696;BME280;10507;52.754;13.040;2023-01-29T02:03:00;101480.63;;;-0.06;99.93
20696;BME280;10507;52.754;13.040;2023-01-29T02:05:46;101439.47;;;-0.10;99.73
20696;BME280;10507;52.754;13.040;2023-01-29T02:08:37;101393.09;;;-0.15;99.13
20696;BME280;10507;52.754;13.040;2023-01-29T02:11:26;101428.13;;;-0.10;99.92
20696;BME280;10507;52.754;13.040;2023-01-29T02:13:56;101442.16;;;-0.07;100.00
20696;BME280;10507;52.754;13.040;2023-01-29T02:16:24;101402.72;;;-0.13;99.94
20696;BME280;10507;52.754;13.040;2023-01-29T02:18:53;101459.66;;;-0.03;100.00
20696;BME280;10507;52.754;13.040;2023-01-29T02:21:44;101408.88;;;-0.11;99.79
20696;BME280;10507;52.754;13.040;2023-01-29T02:24:54;101435.16;;;-0.03;99.48
20696;BME280;10507;52.754;13.040;2023-01-29T02:27:58;101414.13;;;-0.08;99.13
20696;BME280;10507;52.754;13.040;2023-01-29T02:30:33;101430.75;;;-0.09;99.56
20696;BME280;10507;52.754;13.040;2023-01-29T02:33:10;101469.28;;;-0.02;100.00
20696;BME280;10507;52.754;13.040;2023-01-29T02:35:43;101464.94;;;0.02;99.54
20696;BME280;10507;52.754;13.040;2023-01-29T02:38:18;101436.03;;;-0.03;99.69
20696;BME280;10507;52.754;13.040;2023-01-29T02:40:55;101417.63;;;-0.10;100.00
20696;BME280;10507;52.754;13.040;2023-01-29T02:43:31;101485.03;;;-0.02;100.00
20696;BME280;10507;52.754;13.040;2023-01-29T02:46:10;101457.88;;;-0.05;100.00
20696;BME280;10507;52.754;13.040;2023-01-29T02:48:46;101472.78;;;-0.01;100.00
20696;BME280;10507;52.754;13.040;2023-01-29T02:51:19;101513.97;;;0.08;100.00
20696;BME280;10507;52.754;13.040;2023-01-29T02:53:58;101463.13;;;-0.05;100.00
20696;BME280;10507;52.754;13.040;2023-01-29T02:56:29;101476.28;;;-0.01;100.00
20696;BME280;10507;52.754;13.040;2023-01-29T02:59:04;101520.97;;;0.09;100.00
20696;BME280;10507;52.754;13.040;2023-01-29T03:01:37;101524.53;;;0.14;100.00
20696;BME280;10507;52.754;13.040;2023-01-29T03:04:10;101535.06;;;0.22;100.00
20696;BME280;10507;52.754;13.040;2023-01-29T03:06:44;101492.19;;;0.21;100.00
20696;BME280;10507;52.754;13.040;2023-01-29T03:09:21;101467.66;;;0.19;100.00
20696;BME280;10507;52.754;13.040;2023-01-29T03:11:51;101460.63;;;0.13;100.00
20696;BME280;10507;52.754;13.040;2023-01-29T03:14:28;101453.59;;;0.08;100.00
20696;BME280;10507;52.754;13.040;2023-01-29T03:17:19;101500.91;;;0.15;100.00
20696;BME280;10507;52.754;13.040;2023-01-29T03:19:49;101472.88;;;0.11;100.00
20696;BME280;10507;52.754;13.040;2023-01-29T03:22:18;101502.63;;;0.12;100.00
20696;BME280;10507;52.754;13.040;2023-01-29T03:24:50;101521.91;;;0.17;100.00
20696;BME280;10507;52.754;13.040;2023-01-29T03:27:42;101522.81;;;0.16;100.00
20696;BME280;10507;52.754;13.040;2023-01-29T03:30:31;101545.59;;;0.26;100.00
20696;BME280;10507;52.754;13.040;2023-01-29T03:33:19;101552.56;;;0.19;100.00
20696;BME280;10507;52.754;13.040;2023-01-29T03:35:50;101562.16;;;0.11;100.00
20696;BME280;10507;52.754;13.040;2023-01-29T03:38:20;101617.38;;;0.20;100.00
20696;BME280;10507;52.754;13.040;2023-01-29T03:40:53;101576.09;;;0.06;100.00
20696;BME280;10507;52.754;13.040;2023-01-29T03:43:29;101629.56;;;0.17;100.00
20696;BME280;10507;52.754;13.040;2023-01-29T03:46:03;101604.97;;;0.03;100.00
20696;BME280;10507;52.754;13.040;2023-01-29T03:48:35;101668.97;;;0.20;100.00
20696;BME280;10507;52.754;13.040;2023-01-29T03:51:16;101644.41;;;0.12;100.00
20696;BME280;10507;52.754;13.040;2023-01-29T03:53:52;101675.94;;;0.12;100.00
20696;BME280;10507;52.754;13.040;2023-01-29T03:56:33;101693.50;;;0.22;100.00
20696;BME280;10507;52.754;13.040;2023-01-29T03:59:08;101627.69;;;0.02;100.00
20696;BME280;10507;52.754;13.040;2023-01-29T04:01:41;101669.78;;;0.10;100.00
20696;BME280;10507;52.754;13.040;2023-01-29T04:04:17;101661.91;;;0.10;100.00
20696;BME280;10507;52.754;13.040;2023-01-29T04:06:49;101692.56;;;0.15;100.00
20696;BME280;10507;52.754;13.040;2023-01-29T04:09:21;101697.84;;;0.14;100.00
20696;BME280;10507;52.754;13.040;2023-01-29T04:11:54;101685.53;;;0.10;100.00
20696;BME280;10507;52.754;13.040;2023-01-29T04:14:25;101703.09;;;0.14;100.00
20696;BME280;10507;52.754;13.040;2023-01-29T04:16:56;101694.34;;;0.18;100.00
20696;BME280;10507;52.754;13.040;2023-01-29T04:19:27;101658.41;;;0.11;100.00
20696;BME280;10507;52.754;13.040;2023-01-29T04:22:01;101725.97;;;0.27;100.00
20696;BME280;10507;52.754;13.040;2023-01-29T04:24:30;101733.88;;;0.30;100.00
20696;BME280;10507;52.754;13.040;2023-01-29T04:27:10;101675.06;;;0.11;100.00
20696;BME280;10507;52.754;13.040;2023-01-29T04:29:52;101699.56;;;0.13;100.00
20696;BME280;10507;52.754;13.040;2023-01-29T04:32:28;101701.34;;;0.16;100.00
20696;BME280;10507;52.754;13.040;2023-01-29T04:35:00;101710.09;;;0.15;100.00
20696;BME280;10507;52.754;13.040;2023-01-29T04:37:36;101743.44;;;0.27;100.00
20696;BME280;10507;52.754;13.040;2023-01-29T04:40:19;101726.81;;;0.26;100.00
20696;BME280;10507;52.754;13.040;2023-01-29T04:42:55;101716.25;;;0.20;100.00
20696;BME280;10507;52.754;13.040;2023-01-29T04:45:38;101724.09;;;0.17;100.00
20696;BME280;10507;52.754;13.040;2023-01-29T04:48:18;101726.75;;;0.17;100.00
20696;BME280;10507;52.754;13.040;2023-01-29T04:50:56;101746.88;;;0.19;100.00
20696;BME280;10507;52.754;13.040;2023-01-29T04:53:36;101751.25;;;0.17;100.00
20696;BME280;10507;52.754;13.040;2023-01-29T04:56:15;101745.16;;;0.22;100.00
20696;BME280;10507;52.754;13.040;2023-01-29T04:58:49;101734.63;;;0.20;100.00
20696;BME280;10507;52.754;13.040;2023-01-29T05:01:19;101778.53;;;0.33;100.00
20696;BME280;10507;52.754;13.040;2023-01-29T05:03:53;101752.22;;;0.26;100.00
20696;BME280;10507;52.754;13.040;2023-01-29T05:06:23;101729.38;;;0.20;100.00
20696;BME280;10507;52.754;13.040;2023-01-29T05:08:52;101759.22;;;0.25;100.00
20696;BME280;10507;52.754;13.040;2023-01-29T05:11:22;101786.47;;;0.36;100.00
20696;BME280;10507;52.754;13.040;2023-01-29T05:13:52;101747.84;;;0.28;100.00
20696;BME280;10507;52.754;13.040;2023-01-29T05:16:23;101785.53;;;0.31;100.00
20696;BME280;10507;52.754;13.040;2023-01-29T05:18:54;101761.88;;;0.28;100.00
20696;BME280;10507;52.754;13.040;2023-01-29T05:21:23;101781.16;;;0.30;100.00
20696;BME280;10507;52.754;13.040;2023-01-29T05:24:16;101770.63;;;0.27;100.00
20696;BME280;10507;52.754;13.040;2023-01-29T05:26:47;101777.59;;;0.25;100.00
20696;BME280;10507;52.754;13.040;2023-01-29T05:29:33;101811.84;;;0.34;100.00
20696;BME280;10507;52.754;13.040;2023-01-29T05:32:01;101811.00;;;0.38;100.00
20696;BME280;10507;52.754;13.040;2023-01-29T05:34:31;101828.59;;;0.46;100.00
20696;BME280;10507;52.754;13.040;2023-01-29T05:36:59;101802.28;;;0.43;100.00
20696;BME280;10507;52.754;13.040;2023-01-29T05:39:27;101804.91;;;0.41;100.00
20696;BME280;10507;52.754;13.040;2023-01-29T05:41:55;101824.25;;;0.51;100.00
20696;BME280;10507;52.754;13.040;2023-01-29T05:44:24;101816.38;;;0.48;100.00
20696;BME280;10507;52.754;13.040;2023-01-29T05:46:52;101840.94;;;0.56;100.00
20696;BME280;10507;52.754;13.040;2023-01-29T05:49:20;101821.66;;;0.52;100.00
20696;BME280;10507;52.754;13.040;2023-01-29T05:51:49;101790.09;;;0.48;100.00
20696;BME280;10507;52.754;13.040;2023-01-29T05:54:17;101827.78;;;0.53;100.00
20696;BME280;10507;52.754;13.040;2023-01-29T05:56:45;101817.25;;;0.48;100.00
20696;BME280;10507;52.754;13.040;2023-01-29T05:59:14;101839.13;;;0.49;100.00
20696;BME280;10507;52.754;13.040;2023-01-29T06:01:42;101864.56;;;0.51;100.00
20696;BME280;10507;52.754;13.040;2023-01-29T06:04:10;101868.94;;;0.54;100.00
20696;BME280;10507;52.754;13.040;2023-01-29T06:06:38;101883.03;;;0.60;100.00
20696;BME280;10507;52.754;13.040;2023-01-29T06:09:09;101877.78;;;0.59;100.00
20696;BME280;10507;52.754;13.040;2023-01-29T06:11:37;101863.69;;;0.54;100.00
20696;BME280;10507;52.754;13.040;2023-01-29T06:14:05;101881.25;;;0.55;100.00
20696;BME280;10507;52.754;13.040;2023-01-29T06:16:33;101878.59;;;0.53;100.00
20696;BME280;10507;52.754;13.040;2023-01-29T06:19:01;101886.53;;;0.58;100.00
20696;BME280;10507;52.754;13.040;2023-01-29T06:21:28;101883.03;;;0.59;100.00
20696;BME280;10507;52.754;13.040;2023-01-29T06:23:56;101898.81;;;0.59;100.00
20696;BME280;10507;52.754;13.040;2023-01-29T06:26:26;101877.75;;;0.57;100.00
20696;BME280;10507;52.754;13.040;2023-01-29T06:28:54;101890.06;;;0.60;100.00
20696;BME280;10507;52.754;13.040;2023-01-29T06:31:22;101872.47;;;0.56;100.00
20696;BME280;10507;52.754;13.040;2023-01-29T06:34:06;101876.88;;;0.55;100.00
20696;BME280;10507;52.754;13.040;2023-01-29T06:36:34;101912.00;;;0.64;100.00
20696;BME280;10507;52.754;13.040;2023-01-29T06:39:03;101915.56;;;0.69;100.00
20696;BME280;10507;52.754;13.040;2023-01-29T06:41:33;101903.25;;;0.63;100.00
20696;BME280;10507;52.754;13.040;2023-01-29T06:44:01;101918.16;;;0.67;100.00
20696;BME280;10507;52.754;13.040;2023-01-29T06:46:29;101919.97;;;0.71;100.00
20696;BME280;10507;52.754;13.040;2023-01-29T06:48:58;101872.56;;;0.62;100.00
20696;BME280;10507;52.754;13.040;2023-01-29T06:51:27;101911.16;;;0.69;100.00
20696;BME280;10507;52.754;13.040;2023-01-29T06:53:54;101894.47;;;0.64;100.00
20696;BME280;10507;52.754;13.040;2023-01-29T06:56:23;101905.91;;;0.66;100.00
20696;BME280;10507;52.754;13.040;2023-01-29T06:58:52;101944.59;;;0.79;100.00
20696;BME280;10507;52.754;13.040;2023-01-29T07:01:20;101911.19;;;0.71;100.00
20696;BME280;10507;52.754;13.040;2023-01-29T07:04:01;101933.19;;;0.79;100.00
20696;BME280;10507;52.754;13.040;2023-01-29T07:06:30;101953.44;;;0.86;100.00
20696;BME280;10507;52.754;13.040;2023-01-29T07:08:58;101908.66;;;0.80;100.00
20696;BME280;10507;52.754;13.040;2023-01-29T07:11:25;101918.31;;;0.82;100.00
20696;BME280;10507;52.754;13.040;2023-01-29T07:13:55;101886.66;;;0.72;100.00
20696;BME280;10507;52.754;13.040;2023-01-29T07:16:23;101898.09;;;0.72;100.00
20696;BME280;10507;52.754;13.040;2023-01-29T07:18:52;101883.16;;;0.71;100.00
20696;BME280;10507;52.754;13.040;2023-01-29T07:21:20;101916.53;;;0.78;100.00
20696;BME280;10507;52.754;13.040;2023-01-29T07:23:48;101933.19;;;0.80;100.00
20696;BME280;10507;52.754;13.040;2023-01-29T07:26:16;101923.59;;;0.81;100.00
20696;BME280;10507;52.754;13.040;2023-01-29T07:28:44;101910.41;;;0.79;100.00
20696;BME280;10507;52.754;13.040;2023-01-29T07:31:14;101916.63;;;0.86;100.00
20696;BME280;10507;52.754;13.040;2023-01-29T07:33:42;101901.75;;;0.88;100.00
20696;BME280;10507;52.754;13.040;2023-01-29T07:36:11;101881.66;;;0.95;100.00
20696;BME280;10507;52.754;13.040;2023-01-29T07:38:40;101865.06;;;0.99;100.00
20696;BME280;10507;52.754;13.040;2023-01-29T07:41:08;101848.38;;;1.00;100.00
20696;BME280;10507;52.754;13.040;2023-01-29T07:43:37;101841.38;;;1.00;100.00
20696;BME280;10507;52.754;13.040;2023-01-29T07:46:06;101854.56;;;1.05;100.00
20696;BME280;10507;52.754;13.040;2023-01-29T07:48:35;101838.78;;;1.02;100.00
20696;BME280;10507;52.754;13.040;2023-01-29T07:51:04;101860.75;;;1.10;100.00
20696;BME280;10507;52.754;13.040;2023-01-29T07:53:32;101858.13;;;1.12;100.00
20696;BME280;10507;52.754;13.040;2023-01-29T07:56:00;101825.63;;;1.05;100.00
20696;BME280;10507;52.754;13.040;2023-01-29T07:58:27;101822.16;;;1.06;100.00
20696;BME280;10507;52.754;13.040;2023-01-29T08:00:55;101831.81;;;1.09;100.00
20696;BME280;10507;52.754;13.040;2023-01-29T08:03:23;101816.91;;;1.06;100.00
20696;BME280;10507;52.754;13.040;2023-01-29T08:05:53;101790.50;;;0.98;100.00
20696;BME280;10507;52.754;13.040;2023-01-29T08:08:21;101806.31;;;1.00;100.00
20696;BME280;10507;52.754;13.040;2023-01-29T08:10:48;101829.97;;;1.00;100.00
20696;BME280;10507;52.754;13.040;2023-01-29T08:13:16;101825.59;;;1.00;100.00
20696;BME280;10507;52.754;13.040;2023-01-29T08:15:44;101813.28;;;0.95;100.00
20696;BME280;10507;52.754;13.040;2023-01-29T08:18:13;101819.44;;;0.98;100.00
20696;BME280;10507;52.754;13.040;2023-01-29T08:20:41;101822.03;;;0.94;100.00
20696;BME280;10507;52.754;13.040;2023-01-29T08:23:12;101861.53;;;1.00;100.00
20696;BME280;10507;52.754;13.040;2023-01-29T08:25:41;101884.41;;;1.09;100.00
20696;BME280;10507;52.754;13.040;2023-01-29T08:28:09;101888.81;;;1.11;100.00
20696;BME280;10507;52.754;13.040;2023-01-29T08:30:38;101864.22;;;1.06;100.00
20696;BME280;10507;52.754;13.040;2023-01-29T08:33:06;101862.50;;;1.08;100.00
20696;BME280;10507;52.754;13.040;2023-01-29T08:35:34;101911.72;;;1.24;100.00
20696;BME280;10507;52.754;13.040;2023-01-29T08:38:03;101830.09;;;1.12;100.00
20696;BME280;10507;52.754;13.040;2023-01-29T08:40:33;101881.03;;;1.23;100.00
20696;BME280;10507;52.754;13.040;2023-01-29T08:43:04;101870.47;;;1.19;100.00
20696;BME280;10507;52.754;13.040;2023-01-29T08:45:36;101883.69;;;1.27;100.00
20696;BME280;10507;52.754;13.040;2023-01-29T08:48:05;101867.88;;;1.23;100.00
20696;BME280;10507;52.754;13.040;2023-01-29T08:50:33;101874.09;;;1.30;100.00
20696;BME280;10507;52.754;13.040;2023-01-29T08:53:03;101893.47;;;1.44;100.00
20696;BME280;10507;52.754;13.040;2023-01-29T08:55:36;101819.66;;;1.24;100.00
20696;BME280;10507;52.754;13.040;2023-01-29T08:58:04;101831.13;;;1.33;100.00
20696;BME280;10507;52.754;13.040;2023-01-29T09:00:33;101868.06;;;1.50;100.00
20696;BME280;10507;52.754;13.040;2023-01-29T09:03:01;101825.06;;;1.48;100.00
20696;BME280;10507;52.754;13.040;2023-01-29T09:05:29;101809.25;;;1.41;100.00
20696;BME280;10507;52.754;13.040;2023-01-29T09:07:58;101812.75;;;1.43;100.00
20696;BME280;10507;52.754;13.040;2023-01-29T09:10:25;101824.25;;;1.53;100.00
20696;BME280;10507;52.754;13.040;2023-01-29T09:12:55;101812.84;;;1.56;100.00
20696;BME280;10507;52.754;13.040;2023-01-29T09:15:23;101791.78;;;1.59;100.00
20696;BME280;10507;52.754;13.040;2023-01-29T09:17:51;101776.91;;;1.62;100.00
20696;BME280;10507;52.754;13.040;2023-01-29T09:20:19;101785.69;;;1.67;100.00
20696;BME280;10507;52.754;13.040;2023-01-29T09:22:47;101785.75;;;1.77;100.00
20696;BME280;10507;52.754;13.040;2023-01-29T09:25:22;101780.53;;;1.87;100.00
20696;BME280;10507;52.754;13.040;2023-01-29T09:27:50;101780.59;;;2.00;100.00
20696;BME280;10507;52.754;13.040;2023-01-29T09:30:19;101720.88;;;1.91;100.00
20696;BME280;10507;52.754;13.040;2023-01-29T09:32:47;101702.44;;;1.94;100.00
20696;BME280;10507;52.754;13.040;2023-01-29T09:35:20;101739.34;;;2.08;100.00
20696;BME280;10507;52.754;13.040;2023-01-29T09:37:48;101666.47;;;2.05;100.00
20696;BME280;10507;52.754;13.040;2023-01-29T09:40:23;101713.03;;;2.23;100.00
20696;BME280;10507;52.754;13.040;2023-01-29T09:42:56;101676.13;;;2.28;100.00
20696;BME280;10507;52.754;13.040;2023-01-29T09:45:27;101690.22;;;2.41;100.00
20696;BME280;10507;52.754;13.040;2023-01-29T09:47:57;101634.00;;;2.31;100.00
20696;BME280;10507;52.754;13.040;2023-01-29T09:50:31;101640.16;;;2.42;100.00
20696;BME280;10507;52.754;13.040;2023-01-29T09:53:04;101584.81;;;2.32;100.00
20696;BME280;10507;52.754;13.040;2023-01-29T09:55:39;101613.78;;;2.36;100.00
20696;BME280;10507;52.754;13.040;2023-01-29T09:58:13;101609.41;;;2.49;100.00
20696;BME280;10507;52.754;13.040;2023-01-29T10:00:52;101597.97;;;2.45;100.00
20696;BME280;10507;52.754;13.040;2023-01-29T10:03:38;101572.50;;;2.43;100.00
20696;BME280;10507;52.754;13.040;2023-01-29T10:06:20;101581.25;;;2.46;100.00
20696;BME280;10507;52.754;13.040;2023-01-29T10:11:59;101589.97;;;2.78;100.00
20696;BME280;10507;52.754;13.040;2023-01-29T10:14:38;101571.50;;;2.78;100.00
20696;BME280;10507;52.754;13.040;2023-01-29T10:17:28;101569.75;;;2.84;100.00
20696;BME280;10507;52.754;13.040;2023-01-29T10:20:12;101539.88;;;2.85;100.00
20696;BME280;10507;52.754;13.040;2023-01-29T10:22:55;101489.75;;;2.85;100.00
20696;BME280;10507;52.754;13.040;2023-01-29T10:25:27;101491.50;;;2.80;100.00
20696;BME280;10507;52.754;13.040;2023-01-29T10:27:57;101517.84;;;2.94;100.00
20696;BME280;10507;52.754;13.040;2023-01-29T10:30:29;101477.38;;;2.94;100.00
20696;BME280;10507;52.754;13.040;2023-01-29T10:33:02;101503.75;;;3.01;100.00
20696;BME280;10507;52.754;13.040;2023-01-29T10:35:33;101489.56;;;3.16;100.00
20696;BME280;10507;52.754;13.040;2023-01-29T10:38:17;101493.84;;;3.34;100.00
20696;BME280;10507;52.754;13.040;2023-01-29T10:40:52;101494.66;;;3.47;100.00
20696;BME280;10507;52.754;13.040;2023-01-29T10:43:28;101523.56;;;3.68;100.00
20696;BME280;10507;52.754;13.040;2023-01-29T10:46:06;101504.06;;;3.85;100.00
20696;BME280;10507;52.754;13.040;2023-01-29T10:48:44;101379.94;;;3.82;100.00
20696;BME280;10507;52.754;13.040;2023-01-29T10:51:25;101430.03;;;3.91;100.00
20696;BME280;10507;52.754;13.040;2023-01-29T10:54:06;101349.88;;;3.93;100.00
20696;BME280;10507;52.754;13.040;2023-01-29T10:56:53;101291.75;;;3.93;99.77
20696;BME280;10507;52.754;13.040;2023-01-29T10:59:36;101237.38;;;3.77;99.81
20696;BME280;10507;52.754;13.040;2023-01-29T11:02:14;101305.94;;;3.86;99.69
20696;BME280;10507;52.754;13.040;2023-01-29T11:04:46;101336.72;;;3.90;99.76
20696;BME280;10507;52.754;13.040;2023-01-29T11:07:17;101276.75;;;3.97;99.77
20696;BME280;10507;52.754;13.040;2023-01-29T11:09:52;101307.50;;;4.03;100.00
20696;BME280;10507;52.754;13.040;2023-01-29T11:12:26;101295.00;;;4.14;99.26
20696;BME280;10507;52.754;13.040;2023-01-29T11:15:00;101256.16;;;4.21;98.38
20696;BME280;10507;52.754;13.040;2023-01-29T11:17:31;101247.44;;;4.15;98.30
20696;BME280;10507;52.754;13.040;2023-01-29T11:20:07;101156.72;;;4.13;97.32
20696;BME280;10507;52.754;13.040;2023-01-29T11:22:53;101199.72;;;4.26;97.95
20696;BME280;10507;52.754;13.040;2023-01-29T11:25:22;101152.16;;;4.25;96.77
20696;BME280;10507;52.754;13.040;2023-01-29T11:27:52;101019.53;;;4.01;96.79
20696;BME280;10507;52.754;13.040;2023-01-29T11:30:23;101145.16;;;4.21;96.72
20696;BME280;10507;52.754;13.040;2023-01-29T11:32:59;101141.50;;;4.29;96.90
20696;BME280;10507;52.754;13.040;2023-01-29T11:35:36;101119.44;;;4.32;96.27
20696;BME280;10507;52.754;13.040;2023-01-29T11:38:16;101070.13;;;4.29;96.33
20696;BME280;10507;52.754;13.040;2023-01-29T11:40:45;101073.56;;;4.36;95.47
20696;BME280;10507;52.754;13.040;2023-01-29T11:43:28;100918.94;;;4.12;94.80
20696;BME280;10507;52.754;13.040;2023-01-29T11:45:59;100991.88;;;4.21;95.14
20696;BME280;10507;52.754;13.040;2023-01-29T11:48:39;100935.78;;;4.06;95.15
20696;BME280;10507;52.754;13.040;2023-01-29T11:51:11;100948.94;;;4.09;95.02
20696;BME280;10507;52.754;13.040;2023-01-29T11:53:51;100964.81;;;4.08;95.23
20696;BME280;10507;52.754;13.040;2023-01-29T11:56:26;101057.69;;;4.36;95.26
20696;BME280;10507;52.754;13.040;2023-01-29T11:58:57;100989.75;;;4.41;93.96
20696;BME280;10507;52.754;13.040;2023-01-29T12:01:30;100927.25;;;4.37;94.12
20696;BME280;10507;52.754;13.040;2023-01-29T12:04:00;100885.16;;;4.28;93.68
20696;BME280;10507;52.754;13.040;2023-01-29T12:06:33;100893.91;;;4.30;93.27
20696;BME280;10507;52.754;13.040;2023-01-29T12:09:09;100880.88;;;4.22;93.80
20696;BME280;10507;52.754;13.040;2023-01-29T12:11:42;100898.56;;;4.19;94.02
20696;BME280;10507;52.754;13.040;2023-01-29T12:14:23;100882.88;;;4.09;94.39
20696;BME280;10507;52.754;13.040;2023-01-29T12:16:56;100953.81;;;4.31;94.15
20696;BME280;10507;52.754;13.040;2023-01-29T12:19:31;100913.34;;;4.29;94.23
20696;BME280;10507;52.754;13.040;2023-01-29T12:22:05;100952.06;;;4.31;94.17
20696;BME280;10507;52.754;13.040;2023-01-29T12:24:40;100888.81;;;4.21;94.46
20696;BME280;10507;52.754;13.040;2023-01-29T12:27:15;100848.47;;;4.12;94.04
20696;BME280;10507;52.754;13.040;2023-01-29T12:29:48;100806.38;;;4.03;94.29
20696;BME280;10507;52.754;13.040;2023-01-29T12:32:28;100849.50;;;4.05;94.40
20696;BME280;10507;52.754;13.040;2023-01-29T12:35:02;100861.91;;;4.02;94.00
20696;BME280;10507;52.754;13.040;2023-01-29T12:37:38;100903.13;;;4.10;94.50
20696;BME280;10507;52.754;13.040;2023-01-29T12:40:12;100817.22;;;3.91;94.34
20696;BME280;10507;52.754;13.040;2023-01-29T12:42:45;100856.66;;;4.00;94.45
20696;BME280;10507;52.754;13.040;2023-01-29T12:45:17;100930.50;;;4.06;95.07
20696;BME280;10507;52.754;13.040;2023-01-29T12:47:48;100823.53;;;3.82;95.07
20696;BME280;10507;52.754;13.040;2023-01-29T12:50:20;100907.06;;;3.88;95.51
20696;BME280;10507;52.754;13.040;2023-01-29T12:52:52;100882.50;;;3.84;95.80
20696;BME280;10507;52.754;13.040;2023-01-29T12:55:24;100858.97;;;3.70;95.69
20696;BME280;10507;52.754;13.040;2023-01-29T12:57:56;100928.34;;;3.79;96.21
20696;BME280;10507;52.754;13.040;2023-01-29T13:00:28;100887.09;;;3.73;95.65
20696;BME280;10507;52.754;13.040;2023-01-29T13:03:02;100889.00;;;3.65;95.85
20696;BME280;10507;52.754;13.040;2023-01-29T13:05:37;100892.56;;;3.62;96.53
20696;BME280;10507;52.754;13.040;2023-01-29T13:08:10;100953.22;;;3.65;97.17
20696;BME280;10507;52.754;13.040;2023-01-29T13:10:43;100973.47;;;3.66;96.85
20696;BME280;10507;52.754;13.040;2023-01-29T13:13:17;100914.69;;;3.55;97.38